Time;durP1;ratioP1;P1;durP2;ratioP2;P2;SDS_P1;SDS_P2;PMS_P1;PMS_P2;Temp;Humidity;BMP_temperature;BMP_pressure;BME280_temperature;BME280_humidity;BME280_pressure;Samples;Min_cycle;Max_cycle;Signal;HPM_P1;HPM_P2
2022/06/18 00:02:17;;;;;;;7.07;3.00;;;;;;;22.10;55.47;101721.84;5041880;28;20025;-57
2022/06/18 00:04:43;;;;;;;;;;;;;;;22.19;55.00;101717.78;5045212;28;20404;-54
2022/06/18 00:07:12;;;;;;;6.68;3.00;;;;;;;22.05;55.20;101711.72;5044730;28;19917;-57
2022/06/18 00:09:41;;;;;;;6.00;3.00;;;;;;;22.00;55.61;101713.41;5048871;28;20036;-57
2022/06/18 00:14:56;;;;;;;7.07;3.15;;;;;;;22.00;55.47;101711.53;5039192;28;19920;-57
2022/06/18 00:17:21;;;;;;;7.57;2.90;;;;;;;21.92;55.74;101707.22;5044287;28;20017;-58
2022/06/18 00:19:48;;;;;;;6.18;3.30;;;;;;;21.95;56.00;101709.47;5048361;28;20112;-57
2022/06/18 00:22:15;;;;;;;6.30;2.90;;;;;;;21.84;56.30;101704.81;5051138;28;20036;-56
2022/06/18 00:24:42;;;;;;;7.03;3.10;;;;;;;21.77;56.44;101706.78;5046451;28;20025;-57
2022/06/18 00:27:16;;;;;;;6.35;2.88;;;;;;;21.79;56.67;101703.84;5045220;28;20032;-57
2022/06/18 00:29:42;;;;;;;5.78;2.97;;;;;;;21.82;56.95;101704.22;5046310;28;20017;-57
2022/06/18 00:32:08;;;;;;;5.75;2.95;;;;;;;21.75;57.28;101706.16;5043620;28;20056;-57
2022/06/18 00:34:34;;;;;;;4.10;3.00;;;;;;;21.79;57.27;101698.44;5047719;28;20033;-57
2022/06/18 00:36:59;;;;;;;11.68;3.25;;;;;;;21.71;57.33;101702.25;5046680;28;20689;-57
2022/06/18 00:39:28;;;;;;;7.30;3.72;;;;;;;21.54;57.75;101704.69;5049966;28;20032;-56
2022/06/18 00:41:53;;;;;;;7.57;3.35;;;;;;;21.54;58.31;101698.47;5048500;28;20035;-56
2022/06/18 00:44:37;;;;;;;4.55;3.38;;;;;;;21.55;58.51;101705.53;5046911;28;20092;-57
2022/06/18 00:47:32;;;;;;;6.20;3.67;;;;;;;21.57;58.39;101704.25;5046380;28;20120;-57
2022/06/18 00:50:09;;;;;;;6.28;3.42;;;;;;;21.43;58.60;101701.91;5007449;28;20392;-57
2022/06/18 00:52:43;;;;;;;5.97;3.60;;;;;;;21.40;58.57;101705.06;5040026;28;20039;-56
2022/06/18 00:55:20;;;;;;;5.28;3.55;;;;;;;21.29;59.08;101704.69;5047261;28;20500;-56
2022/06/18 00:58:18;;;;;;;5.88;3.80;;;;;;;21.30;59.28;101700.94;5045755;28;20025;-57
2022/06/18 01:00:46;;;;;;;6.00;3.80;;;;;;;21.18;59.36;101696.47;5012463;28;20065;-57
2022/06/18 01:03:26;;;;;;;5.93;3.72;;;;;;;21.09;59.60;101695.88;5045117;28;20113;-57
2022/06/18 01:05:54;;;;;;;6.88;4.15;;;;;;;21.07;59.95;101691.75;5047596;28;20424;-58
2022/06/18 01:08:22;;;;;;;5.03;3.78;;;;;;;21.01;59.96;101691.59;5056829;28;20021;-56
2022/06/18 01:10:55;;;;;;;6.53;4.20;;;;;;;20.97;60.24;101686.84;5045294;28;20112;-57
2022/06/18 01:13:25;;;;;;;7.20;4.10;;;;;;;20.91;60.48;101683.16;5044596;28;20037;-56
2022/06/18 01:15:54;;;;;;;5.15;4.10;;;;;;;20.93;60.46;101693.72;5045966;28;20021;-55
2022/06/18 01:18:20;;;;;;;9.32;4.45;;;;;;;20.87;60.81;101684.63;5045132;28;20476;-57
2022/06/18 01:20:51;;;;;;;6.07;4.50;;;;;;;20.85;61.01;101685.91;5048005;28;20025;-56
2022/06/18 01:23:29;;;;;;;5.82;4.25;;;;;;;20.86;61.04;101684.84;5043937;28;20025;-56
2022/06/18 01:25:54;;;;;;;6.95;4.35;;;;;;;20.81;61.38;101663.06;5033304;28;20040;-57
2022/06/18 01:28:20;;;;;;;11.70;4.55;;;;;;;20.89;61.32;101676.31;5046639;28;20029;-57
2022/06/18 01:30:46;;;;;;;8.27;4.70;;;;;;;20.78;61.31;101677.81;5043518;28;20033;-57
2022/06/18 01:33:12;;;;;;;7.70;4.32;;;;;;;20.91;61.16;101676.94;5055465;28;20457;-57
2022/06/18 01:35:42;;;;;;;8.88;4.38;;;;;;;20.78;61.29;101680.53;5051623;28;20658;-56
2022/06/18 01:38:10;;;;;;;8.52;4.70;;;;;;;20.80;61.49;101681.13;5045286;28;20037;-56
2022/06/18 01:40:48;;;;;;;8.20;4.65;;;;;;;20.93;61.50;101682.94;5041669;28;20028;-56
2022/06/18 01:43:17;;;;;;;7.05;4.55;;;;;;;20.86;61.60;101677.59;5052108;28;20484;-57
2022/06/18 01:45:45;;;;;;;7.32;5.00;;;;;;;20.86;61.75;101680.28;5048433;28;20032;-55
2022/06/18 01:48:19;;;;;;;6.63;4.82;;;;;;;20.87;61.75;101673.00;5044761;28;20025;-57
2022/06/18 01:50:53;;;;;;;9.10;4.70;;;;;;;20.82;61.62;101672.84;5037673;28;20034;-57
2022/06/18 01:53:26;;;;;;;6.35;5.07;;;;;;;20.78;61.57;101677.00;5041108;28;20037;-57
2022/06/18 01:55:58;;;;;;;7.35;5.10;;;;;;;20.82;61.58;101673.66;5048448;28;20029;-55
2022/06/18 01:58:38;;;;;;;8.13;5.43;;;;;;;20.79;61.77;101663.28;5045559;28;20045;-57
2022/06/18 02:01:11;;;;;;;11.02;5.50;;;;;;;20.79;61.73;101662.44;5040593;28;20481;-56
2022/06/18 02:03:37;;;;;;;13.25;5.68;;;;;;;20.77;61.70;101659.16;5039368;28;20103;-56
2022/06/18 02:06:03;;;;;;;8.18;5.35;;;;;;;20.77;61.72;101665.38;5047161;28;20025;-57
2022/06/18 02:08:29;;;;;;;11.55;5.80;;;;;;;20.73;61.85;101667.69;5046102;28;20094;-55
2022/06/18 02:10:59;;;;;;;10.82;6.03;;;;;;;20.72;61.97;101663.31;5046773;28;20029;-57
2022/06/18 02:13:31;;;;;;;8.07;5.85;;;;;;;20.70;62.27;101664.59;5051910;28;20020;-56
2022/06/18 02:15:59;;;;;;;9.00;5.38;;;;;;;20.69;62.11;101668.34;5048495;28;20074;-56
2022/06/18 02:18:24;;;;;;;15.38;5.93;;;;;;;20.65;62.16;101656.31;5041335;28;20042;-57
2022/06/18 02:20:56;;;;;;;10.88;6.32;;;;;;;20.62;62.85;101663.00;5045884;28;20013;-55
2022/06/18 02:23:23;;;;;;;8.57;5.88;;;;;;;20.59;62.82;101657.19;5055540;28;20043;-57
2022/06/18 02:25:49;;;;;;;8.55;5.70;;;;;;;20.52;63.01;101651.81;5055846;28;20028;-56
2022/06/18 02:28:22;;;;;;;13.98;6.47;;;;;;;20.51;62.96;101654.72;5045215;28;20028;-56
2022/06/18 02:30:48;;;;;;;8.73;6.38;;;;;;;20.46;63.34;101651.84;5046765;28;20106;-56
2022/06/18 02:33:34;;;;;;;9.35;6.13;;;;;;;20.46;63.77;101651.84;5046270;28;20049;-56
2022/06/18 02:36:09;;;;;;;10.43;6.53;;;;;;;20.42;63.65;101655.00;5045918;28;20459;-56
2022/06/18 02:38:34;;;;;;;10.75;6.75;;;;;;;20.41;63.83;101645.25;5049133;28;20029;-56
2022/06/18 02:40:59;;;;;;;11.68;6.72;;;;;;;20.40;63.92;101651.69;5042961;28;20033;-57
2022/06/18 02:43:25;;;;;;;13.40;6.72;;;;;;;20.34;64.06;101654.41;5047414;28;20086;-56
2022/06/18 02:45:53;;;;;;;9.18;6.72;;;;;;;20.25;64.33;101651.13;5049546;28;20029;-56
2022/06/18 02:48:22;;;;;;;11.63;7.10;;;;;;;20.22;64.39;101656.09;5053145;28;20087;-56
2022/06/18 02:50:48;;;;;;;10.35;6.45;;;;;;;20.21;64.42;101649.03;5051509;28;20021;-56
2022/06/18 02:53:14;;;;;;;11.80;6.97;;;;;;;20.20;64.75;101653.59;5048775;28;20016;-57
2022/06/18 02:55:49;;;;;;;11.45;7.18;;;;;;;20.15;64.94;101660.69;5049011;28;20024;-56
2022/06/18 02:58:24;;;;;;;9.07;7.18;;;;;;;20.09;65.00;101655.13;5049224;28;20075;-56
2022/06/18 03:00:53;;;;;;;9.07;7.10;;;;;;;19.97;65.71;101651.44;5049129;28;20040;-56
2022/06/18 03:03:19;;;;;;;;;;;;;;;19.99;65.41;101662.00;5051288;28;20021;-57
2022/06/18 03:05:44;;;;;;;14.90;7.85;;;;;;;19.87;65.60;101653.72;5046827;28;20415;-56
2022/06/18 03:08:10;;;;;;;8.95;7.30;;;;;;;19.76;65.83;101657.09;5047366;28;20040;-56
2022/06/18 03:13:21;;;;;;;12.60;7.88;;;;;;;19.66;66.46;101662.06;5044714;28;20097;-55
2022/06/18 03:15:48;;;;;;;13.57;7.57;;;;;;;19.69;66.64;101661.69;5054708;28;20044;-56
2022/06/18 03:18:17;;;;;;;12.50;7.18;;;;;;;19.67;66.65;101656.50;5054371;28;20056;-55
2022/06/18 03:20:55;;;;;;;15.68;7.18;;;;;;;19.70;66.70;101671.41;5047474;28;20029;-57
2022/06/18 03:23:25;;;;;;;9.82;7.30;;;;;;;19.71;66.71;101662.28;5049630;28;20028;-57
2022/06/18 03:25:51;;;;;;;12.38;7.43;;;;;;;19.67;66.95;101656.50;5047798;28;20029;-57
2022/06/18 03:28:18;;;;;;;12.18;8.00;;;;;;;19.67;66.71;101661.88;5053169;28;20131;-57
2022/06/18 03:30:43;;;;;;;13.85;7.70;;;;;;;19.60;67.25;101666.44;5049350;28;20502;-57
2022/06/18 03:33:10;;;;;;;10.40;8.18;;;;;;;19.59;67.02;101674.72;5047139;28;20108;-56
2022/06/18 03:35:36;;;;;;;13.40;8.00;;;;;;;19.55;67.05;101666.25;5050057;28;20052;-57
2022/06/18 03:38:01;;;;;;;12.90;7.55;;;;;;;19.54;67.39;101675.38;5043007;28;20106;-57
2022/06/18 03:40:27;;;;;;;11.20;8.25;;;;;;;19.50;67.65;101672.25;5057777;28;20052;-56
2022/06/18 03:42:53;;;;;;;14.10;8.80;;;;;;;19.52;67.52;101676.59;5052290;28;20083;-56
2022/06/18 03:45:19;;;;;;;12.63;7.60;;;;;;;19.49;67.43;101681.34;5047125;28;20020;-57
2022/06/18 03:47:46;;;;;;;11.52;7.70;;;;;;;19.47;67.75;101671.81;5048533;28;20027;-56
2022/06/18 03:50:18;;;;;;;10.85;8.10;;;;;;;19.46;67.92;101671.00;5045524;28;20037;-57
2022/06/18 03:52:43;;;;;;;18.60;7.75;;;;;;;19.48;67.65;101668.09;5047403;28;20024;-56
2022/06/18 03:55:11;;;;;;;19.35;8.25;;;;;;;19.53;67.56;101670.16;5056050;28;20542;-56
2022/06/18 03:57:37;;;;;;;12.75;8.25;;;;;;;19.56;67.38;101665.22;5048572;28;20025;-56
2022/06/18 04:00:04;;;;;;;13.07;8.18;;;;;;;19.61;67.58;101669.97;5046611;28;20032;-56
2022/06/18 04:02:29;;;;;;;12.93;7.82;;;;;;;19.64;67.37;101662.28;5045622;28;20041;-55
2022/06/18 04:04:56;;;;;;;13.10;7.85;;;;;;;19.68;67.06;101662.72;5045874;28;20025;-55
2022/06/18 04:07:23;;;;;;;12.18;7.50;;;;;;;19.65;67.15;101655.03;5046252;28;20083;-55
2022/06/18 04:09:50;;;;;;;14.10;8.55;;;;;;;19.63;66.88;101660.63;5047625;28;20020;-55
2022/06/18 04:12:17;;;;;;;13.98;7.97;;;;;;;19.66;67.01;101657.53;5039948;28;20040;-57
2022/06/18 04:14:43;;;;;;;15.60;8.02;;;;;;;19.66;67.13;101657.53;5041310;28;20067;-57
2022/06/18 04:17:13;;;;;;;14.68;8.20;;;;;;;19.65;67.29;101658.56;5038565;28;20032;-56
2022/06/18 04:19:39;;;;;;;15.10;8.20;;;;;;;19.66;67.19;101651.28;5040900;28;20040;-56
2022/06/18 04:22:05;;;;;;;11.77;7.82;;;;;;;19.68;67.28;101654.63;5040394;28;20029;-56
2022/06/18 04:24:30;;;;;;;16.90;8.43;;;;;;;19.72;67.21;101654.00;5042808;28;20074;-56
2022/06/18 04:26:55;;;;;;;16.10;8.43;;;;;;;19.78;66.68;101660.41;5022864;28;20028;-56
2022/06/18 04:29:21;;;;;;;15.07;8.02;;;;;;;19.81;66.88;101654.59;5043499;28;20032;-56
2022/06/18 04:31:46;;;;;;;13.32;7.97;;;;;;;19.76;66.69;101657.09;5043019;28;20070;-57
2022/06/18 04:34:11;;;;;;;13.93;8.60;;;;;;;19.68;67.21;101655.47;5046962;28;20028;-55
2022/06/18 04:36:39;;;;;;;15.32;8.30;;;;;;;19.67;67.22;101659.19;5055608;28;20025;-56
2022/06/18 04:39:05;;;;;;;12.27;8.43;;;;;;;19.70;67.66;101657.94;5049692;28;20148;-56
2022/06/18 04:41:30;;;;;;;15.68;8.38;;;;;;;19.71;67.57;101659.59;5042672;28;20070;-55
2022/06/18 04:43:57;;;;;;;13.02;8.13;;;;;;;19.72;67.78;101658.56;5044138;28;20041;-56
2022/06/18 04:46:23;;;;;;;14.32;8.98;;;;;;;19.75;67.53;101660.84;5040172;28;20021;-56
2022/06/18 04:48:49;;;;;;;16.25;9.10;;;;;;;19.75;67.57;101660.84;5039149;28;20434;-56
2022/06/18 04:51:14;;;;;;;12.88;8.52;;;;;;;19.77;67.68;101658.75;5045117;28;20056;-57
2022/06/18 04:53:39;;;;;;;15.57;8.80;;;;;;;19.79;67.38;101662.06;5048967;28;20016;-56
2022/06/18 04:56:05;;;;;;;15.45;8.70;;;;;;;19.83;67.61;101663.28;5058609;28;20053;-56
2022/06/18 04:58:30;;;;;;;17.50;8.90;;;;;;;19.85;67.37;101666.59;5047409;28;20540;-56
2022/06/18 05:00:56;;;;;;;13.70;9.07;;;;;;;19.90;67.68;101663.25;5045341;28;20033;-56
2022/06/18 05:03:21;;;;;;;16.20;8.90;;;;;;;19.94;67.56;101665.31;5056868;28;20048;-57
2022/06/18 05:05:47;;;;;;;17.55;9.60;;;;;;;19.98;67.61;101666.56;5064967;28;20510;-57
2022/06/18 05:08:13;;;;;;;17.77;9.38;;;;;;;20.02;67.65;101667.81;5046605;28;20025;-56
2022/06/18 05:10:38;;;;;;;13.40;8.93;;;;;;;20.06;67.39;101669.03;5049527;28;20020;-57
2022/06/18 05:13:05;;;;;;;16.98;10.23;;;;;;;20.05;66.96;101667.38;5060341;28;20017;-56
2022/06/18 05:15:31;;;;;;;14.90;9.43;;;;;;;20.10;66.89;101669.44;5048256;28;20033;-56
2022/06/18 05:17:58;;;;;;;16.20;9.93;;;;;;;20.13;67.08;101660.09;5054969;28;20029;-56
2022/06/18 05:20:23;;;;;;;18.98;9.73;;;;;;;20.17;67.04;101662.13;5055195;28;20104;-55
2022/06/18 05:22:49;;;;;;;14.40;10.05;;;;;;;20.19;66.76;101676.22;5049130;28;20016;-55
2022/06/18 05:25:15;;;;;;;17.33;10.10;;;;;;;20.25;66.47;101675.41;5056754;28;20484;-56
2022/06/18 05:27:42;;;;;;;18.80;9.82;;;;;;;20.28;66.75;101679.53;5046914;28;20029;-55
2022/06/18 05:30:12;;;;;;;16.10;10.40;;;;;;;20.33;66.47;101680.53;5046658;28;20029;-56
2022/06/18 05:32:37;;;;;;;19.23;10.55;;;;;;;20.37;66.47;101679.06;5047999;28;20028;-56
2022/06/18 05:35:03;;;;;;;17.45;10.50;;;;;;;20.42;66.60;101683.84;5047226;28;20032;-56
2022/06/18 05:37:31;;;;;;;19.20;10.98;;;;;;;20.43;66.46;101688.19;5046868;28;20033;-56
2022/06/18 05:39:56;;;;;;;16.23;10.75;;;;;;;20.46;66.60;101695.84;5047068;28;20021;-55
2022/06/18 05:42:22;;;;;;;20.13;10.70;;;;;;;20.49;67.01;101687.34;5050864;28;20031;-56
2022/06/18 05:44:48;;;;;;;14.05;10.85;;;;;;;20.53;66.72;101695.81;5047648;28;20071;-56
2022/06/18 05:47:22;;;;;;;17.67;10.93;;;;;;;20.58;66.88;101693.31;5046600;28;20025;-56
2022/06/18 05:49:48;;;;;;;15.27;11.77;;;;;;;20.61;67.29;101693.72;5042120;28;20025;-55
2022/06/18 05:52:13;;;;;;;19.65;11.65;;;;;;;20.66;67.00;101690.38;5046946;28;20082;-55
2022/06/18 05:54:38;;;;;;;15.95;11.60;;;;;;;20.65;66.22;101684.13;5048434;28;20029;-56
2022/06/18 05:57:04;;;;;;;23.88;11.60;;;;;;;20.71;66.16;101687.84;5052810;28;20545;-55
2022/06/18 05:59:30;;;;;;;19.02;11.80;;;;;;;20.74;66.11;101687.41;5046968;28;20025;-56
2022/06/18 06:01:56;;;;;;;18.02;11.35;;;;;;;20.82;66.39;101689.03;5042636;28;20021;-56
2022/06/18 06:04:26;;;;;;;21.52;11.77;;;;;;;20.86;66.17;101687.56;5049085;28;20032;-58
2022/06/18 06:06:51;;;;;;;24.48;12.57;;;;;;;20.90;65.81;101678.81;5051836;28;20025;-54
2022/06/18 06:12:10;;;;;;;19.73;11.38;;;;;;;20.95;65.30;101680.84;5050996;28;20087;-57
2022/06/18 06:14:35;;;;;;;19.50;11.35;;;;;;;20.98;65.01;101666.91;5050409;28;20564;-56
2022/06/18 06:17:01;;;;;;;23.73;11.88;;;;;;;21.03;64.71;101669.75;5049909;28;20135;-56
2022/06/18 06:19:26;;;;;;;19.08;11.30;;;;;;;21.11;64.76;101672.22;5060338;28;20515;-56
2022/06/18 06:21:51;;;;;;;16.35;10.65;;;;;;;21.17;64.79;101676.72;5047237;28;20028;-56
2022/06/18 06:24:17;;;;;;;16.92;11.07;;;;;;;21.21;64.61;101677.09;5049893;28;20465;-56
2022/06/18 06:26:42;;;;;;;23.02;11.30;;;;;;;21.24;64.24;101671.28;5049963;28;20021;-55
2022/06/18 06:29:09;;;;;;;16.77;10.90;;;;;;;21.31;64.62;101672.88;5051372;28;20017;-56
2022/06/18 06:31:34;;;;;;;17.02;10.52;;;;;;;21.32;64.35;101679.94;5047411;28;20032;-56
2022/06/18 06:33:59;;;;;;;18.60;10.88;;;;;;;21.38;64.42;101677.41;5056264;28;20428;-56
2022/06/18 06:36:25;;;;;;;19.02;10.50;;;;;;;21.39;64.15;101670.94;5062950;28;20037;-56
2022/06/18 06:38:50;;;;;;;16.27;10.45;;;;;;;21.44;64.45;101674.66;5051900;28;20052;-56
2022/06/18 06:41:21;;;;;;;17.95;10.80;;;;;;;21.49;64.33;101677.50;5049925;28;20024;-56
2022/06/18 06:43:47;;;;;;;21.42;10.98;;;;;;;21.53;64.18;101670.63;5050856;28;20488;-56
2022/06/18 06:46:15;;;;;;;19.65;10.48;;;;;;;21.62;64.38;101684.66;5057693;28;20017;-55
2022/06/18 06:48:40;;;;;;;21.33;11.18;;;;;;;21.70;64.35;101672.75;5052336;28;20520;-56
2022/06/18 06:51:14;;;;;;;19.58;10.95;;;;;;;21.77;64.06;101676.19;5049642;28;20043;-56
2022/06/18 06:53:40;;;;;;;21.95;11.88;;;;;;;21.85;63.83;101678.59;5052850;28;20028;-56
2022/06/18 06:58:59;;;;;;;20.42;11.52;;;;;;;22.00;63.62;101675.53;5017214;28;20029;-57
2022/06/18 07:01:25;;;;;;;17.42;10.85;;;;;;;21.99;62.58;101684.72;5050041;28;20048;-56
2022/06/18 07:03:51;;;;;;;23.17;10.50;;;;;;;22.03;62.16;101677.78;5053504;28;20016;-56
2022/06/18 07:06:16;;;;;;;17.80;10.25;;;;;;;22.06;62.28;101688.19;5057491;28;20447;-55
2022/06/18 07:08:43;;;;;;;20.98;11.40;;;;;;;22.17;63.00;101682.84;5049651;28;20017;-56
2022/06/18 07:11:08;;;;;;;21.85;11.43;;;;;;;22.23;62.53;101683.81;5048830;28;20098;-56
2022/06/18 07:13:33;;;;;;;22.83;10.65;;;;;;;22.32;62.39;101678.94;5053209;28;20090;-56
2022/06/18 07:15:59;;;;;;;18.42;10.40;;;;;;;22.39;62.14;101685.91;5052576;28;20486;-56
2022/06/18 07:18:31;;;;;;;19.30;10.50;;;;;;;22.46;62.19;101691.22;5056452;28;20128;-56
2022/06/18 07:20:56;;;;;;;17.02;9.32;;;;;;;22.52;61.98;101688.41;5057178;28;20037;-57
2022/06/18 07:23:22;;;;;;;22.08;9.30;;;;;;;22.62;62.13;101681.66;5049816;28;20028;-55
2022/06/18 07:25:47;;;;;;;16.08;10.05;;;;;;;22.69;61.56;101693.19;5048420;28;20031;-56
2022/06/18 07:28:12;;;;;;;15.63;9.25;;;;;;;22.67;61.42;101682.59;5044674;28;20033;-56
2022/06/18 07:30:38;;;;;;;17.55;9.70;;;;;;;22.76;61.08;101683.09;5060064;28;20047;-56
2022/06/18 07:33:04;;;;;;;19.80;8.73;;;;;;;22.77;60.55;101679.31;5049766;28;20021;-56
2022/06/18 07:35:31;;;;;;;20.08;9.50;;;;;;;22.83;60.56;101684.66;5049987;28;20028;-56
2022/06/18 07:37:58;;;;;;;18.33;9.10;;;;;;;22.91;60.65;101680.00;5047208;28;20021;-56
2022/06/18 07:40:25;;;;;;;21.15;9.50;;;;;;;22.94;60.13;101687.66;5049258;28;21426;-55
2022/06/18 07:42:53;;;;;;;19.20;9.40;;;;;;;23.04;60.57;101683.31;5057538;28;20028;-56
2022/06/18 07:45:22;;;;;;;20.10;9.05;;;;;;;23.12;60.32;101677.53;5051577;28;20615;-56
2022/06/18 07:47:48;;;;;;;22.15;9.10;;;;;;;23.24;60.13;101677.59;5049038;28;20404;-56
2022/06/18 07:50:15;;;;;;;16.70;8.82;;;;;;;23.30;60.18;101671.22;5048908;28;20092;-56
2022/06/18 07:52:40;;;;;;;17.92;8.80;;;;;;;23.35;59.57;101673.22;5056916;28;20028;-56
2022/06/18 07:55:11;;;;;;;16.00;8.95;;;;;;;23.42;59.53;101676.66;5053626;28;20029;-56
2022/06/18 07:57:37;;;;;;;20.35;9.55;;;;;;;23.50;59.68;101668.16;5050434;28;20025;-54
2022/06/18 08:00:04;;;;;;;17.92;9.32;;;;;;;23.58;59.54;101667.84;5048878;28;20074;-55
2022/06/18 08:02:29;;;;;;;15.90;7.75;;;;;;;23.65;59.32;101665.81;5049657;28;20033;-55
2022/06/18 08:04:55;;;;;;;16.60;7.88;;;;;;;23.73;59.13;101662.75;5054093;28;20031;-55
2022/06/18 08:07:20;;;;;;;22.15;9.20;;;;;;;23.74;58.59;101659.00;5048074;28;20445;-56
2022/06/18 08:09:45;;;;;;;16.23;8.65;;;;;;;23.82;59.00;101648.81;5052961;28;20033;-57
2022/06/18 08:12:11;;;;;;;16.88;7.90;;;;;;;23.91;59.05;101659.06;5053693;28;20024;-55
2022/06/18 08:14:36;;;;;;;18.65;7.55;;;;;;;24.01;58.83;101653.88;5048615;28;20447;-56
2022/06/18 08:17:01;;;;;;;25.02;7.95;;;;;;;24.12;58.63;101654.88;5045916;28;20036;-56
2022/06/18 08:19:27;;;;;;;15.23;7.53;;;;;;;24.24;58.45;101660.25;5049263;28;20087;-56
2022/06/18 08:21:52;;;;;;;17.08;8.38;;;;;;;24.33;57.93;101651.53;5056658;28;20492;-56
2022/06/18 08:24:20;;;;;;;17.27;7.97;;;;;;;24.41;58.11;101650.31;5049151;28;20036;-54
2022/06/18 08:26:47;;;;;;;14.32;8.27;;;;;;;24.46;57.39;101646.88;5040278;28;20059;-56
2022/06/18 08:29:17;;;;;;;18.35;7.57;;;;;;;24.60;57.71;101648.25;5047724;28;20493;-55
2022/06/18 08:31:43;;;;;;;15.30;7.50;;;;;;;24.68;57.83;101645.13;5042662;28;20540;-55
2022/06/18 08:34:08;;;;;;;24.27;7.32;;;;;;;24.79;57.24;101651.53;5058930;28;20103;-56
2022/06/18 08:36:34;;;;;;;14.20;6.85;;;;;;;24.82;56.73;101654.59;5049390;28;20087;-57
2022/06/18 08:39:00;;;;;;;16.63;6.90;;;;;;;24.92;56.39;101654.78;5047676;28;20027;-56
2022/06/18 08:41:32;;;;;;;14.32;6.95;;;;;;;25.10;56.60;101652.91;5047275;28;20029;-55
2022/06/18 08:44:15;;;;;;;17.35;6.78;;;;;;;25.26;55.98;101657.53;5047285;28;20131;-56
2022/06/18 08:47:07;;;;;;;16.33;7.40;;;;;;;25.40;54.86;101660.72;5055826;28;20020;-54
2022/06/18 08:50:01;;;;;;;16.85;7.90;;;;;;;25.38;54.46;101657.44;5027990;28;20048;-56
2022/06/18 08:52:52;;;;;;;15.90;8.18;;;;;;;25.37;54.45;101656.59;5047030;28;20029;-56
2022/06/18 08:55:41;;;;;;;24.10;7.95;;;;;;;25.40;54.56;101655.28;5047627;28;20045;-56
2022/06/18 08:58:50;;;;;;;20.95;7.70;;;;;;;25.56;55.03;101657.16;5051613;28;20056;-56
2022/06/18 09:01:22;;;;;;;18.10;7.13;;;;;;;25.72;54.14;101652.78;4945800;28;20031;-56
2022/06/18 09:04:11;;;;;;;19.45;7.25;;;;;;;25.93;54.04;101650.06;4954642;28;20022;-55
2022/06/18 09:06:48;;;;;;;20.55;7.18;;;;;;;26.12;53.33;101661.47;5017842;28;20129;-56
2022/06/18 09:09:26;;;;;;;17.90;7.72;;;;;;;26.28;52.74;101664.34;5042328;28;20099;-58
2022/06/18 09:12:08;;;;;;;16.85;6.95;;;;;;;26.41;52.70;101667.53;5040291;28;20503;-57
2022/06/18 09:14:50;;;;;;;17.13;6.57;;;;;;;26.60;52.44;101657.13;5040226;28;20055;-57
2022/06/18 09:17:39;;;;;;;15.52;6.53;;;;;;;26.91;53.00;101657.41;5040943;28;20500;-58
2022/06/18 09:20:17;;;;;;;15.70;7.03;;;;;;;27.08;52.23;101653.47;5037107;28;20030;-55
2022/06/18 09:22:46;;;;;;;;;;;;;;;27.23;51.86;101655.50;5044174;28;20028;-55
2022/06/18 09:25:17;;;;;;;18.00;6.10;;;;;;;27.24;51.29;101657.16;5043902;28;20012;-55
2022/06/18 09:27:53;;;;;;;20.35;6.38;;;;;;;27.25;50.20;101656.06;5045049;28;20044;-56
2022/06/18 09:30:25;;;;;;;17.45;6.45;;;;;;;27.19;49.80;101643.50;5045037;28;20027;-55
2022/06/18 09:32:58;;;;;;;21.10;6.85;;;;;;;27.16;50.54;101644.81;5042335;28;20029;-55
2022/06/18 09:35:33;;;;;;;17.10;6.38;;;;;;;27.31;50.13;101649.56;5040259;28;20021;-55
2022/06/18 09:38:21;;;;;;;16.90;6.00;;;;;;;27.24;49.11;101642.69;5039034;28;20052;-54
2022/06/18 09:40:52;;;;;;;15.27;6.68;;;;;;;27.32;49.15;101637.56;5041519;28;20036;-53
2022/06/18 09:43:20;;;;;;;15.00;5.68;;;;;;;27.40;49.33;101637.06;5038137;28;20542;-55
2022/06/18 09:45:49;;;;;;;20.73;6.07;;;;;;;27.69;50.00;101632.06;5041369;28;20040;-55
2022/06/18 09:48:15;;;;;;;14.35;6.20;;;;;;;27.91;49.52;101625.63;5033942;28;20037;-56
2022/06/18 09:50:46;;;;;;;17.92;6.93;;;;;;;27.90;48.49;101632.97;5036833;28;20032;-55
2022/06/18 09:53:20;;;;;;;18.50;6.05;;;;;;;27.90;48.75;101632.16;5039164;28;20060;-56
2022/06/18 09:55:51;;;;;;;18.77;6.40;;;;;;;28.02;49.29;101630.84;5039376;28;20040;-55
2022/06/18 09:58:24;;;;;;;19.42;6.75;;;;;;;28.12;48.51;101631.97;5036861;28;20029;-55
2022/06/18 10:00:53;;;;;;;16.60;6.25;;;;;;;28.24;49.39;101629.81;5036581;28;20025;-55
2022/06/18 10:09:02;;;;;;;17.50;6.63;;;;;;;28.12;47.42;101621.06;5044223;28;20035;-55
2022/06/18 10:11:27;;;;;;;17.13;6.53;;;;;;;27.98;47.63;101623.44;5047066;28;20028;-53
2022/06/18 10:14:01;;;;;;;17.55;6.43;;;;;;;28.19;47.86;101621.63;5044784;28;20083;-55
2022/06/18 10:16:51;;;;;;;17.65;6.43;;;;;;;28.49;47.94;101627.16;5036910;28;20125;-55
2022/06/18 10:19:40;;;;;;;19.70;7.15;;;;;;;28.67;47.72;101628.56;5041661;28;20044;-55
2022/06/18 10:22:32;;;;;;;46.20;8.32;;;;;;;28.68;47.06;101632.94;5043627;28;20085;-56
2022/06/18 10:25:28;;;;;;;20.20;6.22;;;;;;;28.89;48.03;101626.38;5049527;28;20042;-55
2022/06/18 10:28:19;;;;;;;19.30;6.13;;;;;;;29.11;47.63;101617.09;5036898;28;20029;-55
2022/06/18 10:31:09;;;;;;;18.13;6.10;;;;;;;29.39;48.17;101615.66;5038621;28;20508;-55
2022/06/18 10:33:45;;;;;;;18.52;5.93;;;;;;;29.39;46.97;101615.66;5037942;28;20029;-55
2022/06/18 10:36:28;;;;;;;20.08;6.10;;;;;;;29.43;46.03;101617.56;5035869;28;20026;-55
2022/06/18 10:39:11;;;;;;;19.75;6.50;;;;;;;29.34;45.15;101613.75;5036262;28;20087;-55
2022/06/18 10:42:09;;;;;;;15.65;5.68;;;;;;;29.37;44.67;101615.13;5039442;28;20043;-55
2022/06/18 10:44:59;;;;;;;21.13;6.20;;;;;;;29.29;44.73;101609.13;5039695;28;20044;-55
2022/06/18 10:47:33;;;;;;;20.17;5.95;;;;;;;29.19;44.43;101608.31;5040833;28;20044;-56
2022/06/18 10:50:01;;;;;;;16.20;5.70;;;;;;;29.16;44.02;101601.47;5034636;28;20107;-53
2022/06/18 10:52:27;;;;;;;12.32;5.47;;;;;;;29.18;43.80;101595.72;5040081;28;21901;-55
2022/06/18 10:55:24;;;;;;;19.80;6.00;;;;;;;29.23;44.13;101596.56;5044631;28;20029;-55
2022/06/18 10:57:51;;;;;;;17.80;6.45;;;;;;;29.35;44.07;101595.44;4999170;28;20041;-55
2022/06/18 11:00:28;;;;;;;18.15;6.25;;;;;;;29.33;45.12;101600.34;5044072;28;20032;-53
2022/06/18 11:02:56;;;;;;;11.52;5.82;;;;;;;29.50;45.37;101589.94;5038956;28;20025;-55
2022/06/18 11:05:32;;;;;;;;;;;;;;;29.75;46.17;101594.47;5039065;28;20049;-55
2022/06/18 11:08:00;;;;;;;19.83;6.88;;;;;;;29.78;45.68;101592.03;5041899;28;19920;-55
2022/06/18 11:10:34;;;;;;;14.20;5.25;;;;;;;29.94;44.79;101586.44;5042490;28;20036;-55
2022/06/18 11:13:01;;;;;;;15.32;5.70;;;;;;;29.88;43.36;101583.75;5038534;28;20056;-56
2022/06/18 11:15:34;;;;;;;14.23;5.45;;;;;;;30.03;43.88;101585.59;5044643;28;20037;-56
2022/06/18 11:18:12;;;;;;;15.23;6.15;;;;;;;30.39;46.03;101568.94;5037481;28;20024;-57
2022/06/18 11:20:38;;;;;;;16.77;6.32;;;;;;;30.36;45.33;101564.84;5045469;28;20025;-55
2022/06/18 11:23:16;;;;;;;18.58;7.45;;;;;;;30.34;45.12;101561.56;5052453;28;20633;-56
2022/06/18 11:25:41;;;;;;;17.10;6.25;;;;;;;30.43;44.00;101557.13;5048924;28;20021;-56
2022/06/18 11:28:23;;;;;;;14.32;6.18;;;;;;;30.30;43.78;101555.00;5047112;28;20059;-56
2022/06/18 11:30:52;;;;;;;17.17;5.90;;;;;;;30.56;43.58;101550.16;5050293;28;20058;-56
2022/06/18 11:33:20;;;;;;;;;;;;;;;30.62;42.38;101551.75;5052350;28;20286;-55
2022/06/18 11:35:50;;;;;;;21.15;6.10;;;;;;;30.43;42.53;101543.41;5048374;28;19909;-55
2022/06/18 11:38:27;;;;;;;17.75;6.07;;;;;;;30.52;41.95;101541.69;5048325;28;20021;-56
2022/06/18 11:41:00;;;;;;;17.38;6.40;;;;;;;30.65;42.48;101534.75;5046739;28;20564;-56
2022/06/18 11:44:04;;;;;;;17.80;5.57;;;;;;;30.76;42.20;101530.81;5048098;28;20037;-56
2022/06/18 11:46:46;;;;;;;17.45;6.00;;;;;;;30.96;43.61;101529.78;5007410;28;20033;-56
2022/06/18 11:49:22;;;;;;;16.33;5.90;;;;;;;31.12;43.81;101523.00;5045996;28;20481;-56
2022/06/18 11:52:02;;;;;;;20.45;6.93;;;;;;;31.23;43.78;101528.44;5048996;28;20052;-56